createdAt,value
2023-05-14T18:28:10.837Z,13.60
2023-05-14T18:30:47.020Z,13.54
2023-05-14T18:33:19.360Z,13.44
2023-05-14T18:36:01.655Z,13.50
2023-05-14T18:38:45.833Z,13.42
2023-05-14T18:41:24.121Z,13.18
2023-05-14T18:44:07.448Z,13.05
2023-05-14T18:46:53.500Z,12.90
2023-05-14T18:49:36.748Z,12.91
2023-05-14T18:52:18.310Z,12.95
2023-05-14T18:55:02.257Z,12.87
2023-05-14T18:57:50.752Z,12.95
2023-05-14T19:00:33.685Z,12.94
2023-05-14T19:03:11.621Z,12.93
2023-05-14T19:05:56.031Z,12.82
2023-05-14T19:08:39.820Z,12.77
2023-05-14T19:11:18.912Z,12.88
2023-05-14T19:13:58.951Z,12.67
2023-05-14T19:16:43.150Z,12.71
2023-05-14T19:19:26.891Z,12.72
2023-05-14T19:22:20.997Z,12.91
2023-05-14T19:24:56.480Z,12.73
2023-05-14T19:27:35.056Z,12.65
2023-05-14T19:30:04.762Z,12.65
2023-05-14T19:32:32.829Z,12.67
2023-05-14T19:34:59.837Z,12.59
2023-05-14T19:37:26.980Z,12.63
2023-05-14T19:40:13.340Z,12.56
2023-05-14T19:42:53.926Z,12.64
2023-05-14T19:45:32.391Z,12.59
2023-05-14T19:48:16.841Z,12.48
2023-05-14T19:50:52.622Z,12.58
2023-05-14T19:53:37.058Z,12.61
2023-05-14T19:56:20.090Z,12.57
2023-05-14T19:59:09.641Z,12.53
2023-05-14T20:01:44.870Z,12.56
2023-05-14T20:04:26.624Z,12.69
2023-05-14T20:07:10.136Z,12.64
2023-05-14T20:09:53.945Z,12.51
2023-05-14T20:12:29.639Z,12.64
2023-05-14T20:14:56.616Z,12.70
2023-05-14T20:17:38.519Z,12.72
2023-05-14T20:20:16.350Z,12.75
2023-05-14T20:22:49.074Z,12.70
2023-05-14T20:25:28.746Z,12.68
2023-05-14T20:28:04.420Z,12.66
2023-05-14T20:30:48.801Z,12.71
2023-05-14T20:33:34.121Z,12.75
2023-05-14T20:36:11.951Z,12.59
2023-05-14T20:38:44.765Z,12.64
2023-05-14T20:41:12.176Z,12.63
2023-05-14T20:43:50.457Z,12.65
2023-05-14T20:46:25.844Z,12.62
2023-05-14T20:48:57.808Z,12.72
2023-05-14T20:51:36.202Z,12.74
2023-05-14T20:54:18.147Z,12.68
2023-05-14T20:56:45.183Z,12.64
2023-05-14T20:59:13.046Z,12.62
2023-05-14T21:01:48.169Z,12.66
2023-05-14T21:04:20.686Z,12.59
2023-05-14T21:06:51.767Z,12.67
2023-05-14T21:09:30.014Z,12.65
2023-05-14T21:12:02.759Z,12.58
2023-05-14T21:14:33.682Z,12.66
2023-05-14T21:17:06.446Z,12.52
2023-05-14T21:19:54.874Z,12.57
2023-05-14T21:22:35.503Z,12.59
2023-05-14T21:25:05.168Z,12.58
2023-05-14T21:27:32.188Z,12.64
2023-05-14T21:30:04.051Z,12.66
2023-05-14T21:32:44.975Z,12.62
2023-05-14T21:35:23.475Z,12.77
2023-05-14T21:37:51.500Z,12.67
2023-05-14T21:40:26.709Z,12.71
2023-05-14T21:43:01.576Z,12.78
2023-05-14T21:45:50.802Z,12.80
2023-05-14T21:48:20.309Z,12.81
2023-05-14T21:50:52.881Z,12.75
2023-05-14T21:53:23.407Z,12.66
2023-05-14T21:55:52.843Z,12.76
2023-05-14T21:58:25.378Z,12.67
2023-05-14T22:01:00.704Z,12.60
2023-05-14T22:03:44.253Z,12.62
2023-05-14T22:06:19.622Z,12.62
2023-05-14T22:09:05.594Z,12.62
2023-05-14T22:11:41.085Z,12.66
2023-05-14T22:14:19.139Z,12.59
2023-05-14T22:16:54.522Z,12.56
2023-05-14T22:19:35.523Z,12.50
2023-05-14T22:22:10.687Z,12.64
2023-05-14T22:24:42.901Z,12.77
2023-05-14T22:27:26.828Z,12.65
2023-05-14T22:29:55.348Z,12.58
2023-05-14T22:32:25.590Z,12.67
2023-05-14T22:35:04.730Z,12.70
2023-05-14T22:37:45.336Z,12.62
2023-05-14T22:40:24.960Z,12.63
2023-05-14T22:42:57.560Z,12.59
2023-05-14T22:45:35.937Z,12.67
2023-05-14T22:48:02.940Z,12.69
2023-05-14T22:50:42.832Z,12.68
2023-05-14T22:53:18.222Z,12.65
2023-05-14T22:55:45.255Z,12.70
2023-05-14T22:58:23.864Z,12.75
2023-05-14T23:01:07.386Z,12.62
2023-05-14T23:03:45.518Z,12.70
2023-05-14T23:06:23.209Z,12.75
2023-05-14T23:08:50.163Z,12.67
2023-05-14T23:11:31.905Z,12.78
2023-05-14T23:13:59.307Z,12.71
2023-05-14T23:16:34.557Z,12.74
2023-05-14T23:19:09.976Z,12.73
2023-05-14T23:21:53.695Z,12.69
2023-05-14T23:24:20.744Z,12.81
2023-05-14T23:26:57.069Z,12.85
2023-05-14T23:29:24.096Z,12.87
2023-05-14T23:31:53.401Z,12.82
2023-05-14T23:34:34.736Z,12.86
2023-05-14T23:37:24.066Z,12.93
2023-05-14T23:39:59.393Z,12.93
2023-05-14T23:42:27.507Z,12.91
2023-05-14T23:45:06.610Z,12.91
2023-05-14T23:47:50.931Z,12.97
2023-05-14T23:50:22.274Z,12.88
2023-05-14T23:52:58.058Z,12.80
2023-05-14T23:55:39.344Z,12.91
2023-05-14T23:58:22.825Z,12.95
